createdAt,value
2017-08-14T05:31:46.071Z,70
2017-08-14T05:32:11.539Z,70
2017-08-14T05:32:37.025Z,70
2017-08-14T05:33:02.490Z,70
2017-08-14T05:33:27.959Z,75
2017-08-14T05:33:53.442Z,75
2017-08-14T05:34:18.860Z,75
2017-08-14T05:34:44.335Z,80
2017-08-14T05:35:09.804Z,75
2017-08-14T05:35:35.271Z,75
2017-08-14T05:36:00.775Z,75
2017-08-14T05:36:26.204Z,75
2017-08-14T05:36:51.641Z,75
2017-08-14T05:37:17.130Z,80
2017-08-14T05:37:42.552Z,80
2017-08-14T05:38:07.987Z,80
2017-08-14T05:38:33.421Z,80
2017-08-14T05:38:58.877Z,75
2017-08-14T05:39:24.333Z,75
2017-08-14T05:39:49.798Z,75
2017-08-14T05:40:15.243Z,75
2017-08-14T05:40:40.695Z,80
2017-08-14T05:41:06.152Z,80
2017-08-14T05:41:31.621Z,80
2017-08-14T05:41:57.080Z,80
2017-08-14T05:42:22.564Z,80
2017-08-14T05:42:48.037Z,80
2017-08-14T05:43:13.513Z,80
2017-08-14T05:43:38.984Z,85
2017-08-14T05:44:04.427Z,85
2017-08-14T05:44:29.872Z,85
2017-08-14T05:44:55.360Z,85
2017-08-14T05:45:20.837Z,85
2017-08-14T05:45:46.302Z,90
2017-08-14T05:46:11.760Z,90
2017-08-14T05:46:37.300Z,90
2017-08-14T05:47:02.677Z,90
2017-08-14T05:47:28.146Z,90
2017-08-14T05:47:53.558Z,90
2017-08-14T05:48:19.102Z,90
2017-08-14T05:48:44.501Z,90
2017-08-14T05:49:09.941Z,90
2017-08-14T05:49:35.407Z,90
2017-08-14T05:50:00.826Z,90
2017-08-14T05:50:26.306Z,90
2017-08-14T05:50:51.733Z,90
2017-08-14T05:51:17.244Z,90
2017-08-14T05:51:42.673Z,95
2017-08-14T05:52:08.121Z,95
2017-08-14T05:52:33.596Z,95
2017-08-14T05:52:59.109Z,90
2017-08-14T05:53:24.599Z,90
2017-08-14T05:53:50.026Z,95
2017-08-14T05:54:15.490Z,95
2017-08-14T05:54:41.070Z,100
2017-08-14T05:55:06.447Z,100
2017-08-14T05:55:31.943Z,100
2017-08-14T05:55:57.353Z,105
2017-08-14T05:56:22.856Z,105
2017-08-14T05:56:48.301Z,105
2017-08-14T05:57:13.760Z,105
2017-08-14T05:57:39.317Z,105
2017-08-14T05:58:04.738Z,105
2017-08-14T05:58:30.190Z,105
2017-08-14T05:58:55.638Z,105
2017-08-14T05:59:21.118Z,105
2017-08-14T05:59:46.550Z,105
2017-08-14T06:00:12.084Z,105
2017-08-14T06:00:37.521Z,105
2017-08-14T06:01:02.955Z,100
2017-08-14T06:01:28.431Z,95
2017-08-14T06:01:53.876Z,95
2017-08-14T06:02:19.339Z,95
2017-08-14T06:02:44.788Z,90
2017-08-14T06:03:10.235Z,95
2017-08-14T06:03:35.702Z,95
2017-08-14T06:04:01.184Z,100
2017-08-14T06:04:26.631Z,100
2017-08-14T06:04:52.092Z,110
2017-08-14T06:05:17.537Z,110
2017-08-14T06:05:43.006Z,115
2017-08-14T06:06:08.521Z,115
2017-08-14T06:06:34.002Z,120
2017-08-14T06:06:59.442Z,120
2017-08-14T06:07:24.892Z,120
2017-08-14T06:07:50.368Z,125
2017-08-14T06:08:15.850Z,130
2017-08-14T06:08:41.293Z,140
2017-08-14T06:09:06.749Z,145
2017-08-14T06:09:32.225Z,165
2017-08-14T06:09:57.676Z,230
2017-08-14T06:10:23.135Z,320
2017-08-14T06:10:48.576Z,350
2017-08-14T06:11:14.046Z,350
2017-08-14T06:11:39.530Z,350
2017-08-14T06:12:04.943Z,325
2017-08-14T06:12:30.415Z,290
2017-08-14T06:12:55.918Z,300
2017-08-14T06:13:21.324Z,315
2017-08-14T06:13:46.816Z,340
2017-08-14T06:14:12.233Z,370
2017-08-14T06:14:37.693Z,395
2017-08-14T06:15:03.157Z,425
2017-08-14T06:15:28.617Z,460
2017-08-14T06:15:54.094Z,460
2017-08-14T06:16:19.582Z,410
2017-08-14T06:16:45.022Z,360
2017-08-14T06:17:10.482Z,330
2017-08-14T06:17:35.991Z,335
2017-08-14T06:18:01.396Z,355
2017-08-14T06:18:26.875Z,320
2017-08-14T06:18:52.307Z,275
2017-08-14T06:19:17.770Z,225
2017-08-14T06:19:43.207Z,170
2017-08-14T06:20:08.657Z,145
2017-08-14T06:20:34.132Z,135
2017-08-14T06:20:59.582Z,135
2017-08-14T06:21:25.061Z,125
2017-08-14T06:21:50.564Z,125
2017-08-14T06:22:15.981Z,120
2017-08-14T06:22:41.433Z,125
2017-08-14T06:23:06.900Z,120
2017-08-14T06:23:32.377Z,120
2017-08-14T06:23:57.829Z,120
2017-08-14T06:24:23.301Z,120
2017-08-14T06:24:48.747Z,120
2017-08-14T06:25:14.202Z,120
2017-08-14T06:25:39.691Z,120
2017-08-14T06:26:05.155Z,115
2017-08-14T06:26:30.586Z,120
2017-08-14T06:26:56.088Z,120
2017-08-14T06:27:21.530Z,120
2017-08-14T06:27:46.962Z,120
2017-08-14T06:28:12.423Z,120
2017-08-14T06:28:37.894Z,120
2017-08-14T06:29:03.364Z,120
2017-08-14T06:29:28.806Z,120
2017-08-14T06:29:54.345Z,120
2017-08-14T06:30:19.789Z,120
2017-08-14T06:30:45.280Z,120
2017-08-14T06:31:10.713Z,120
2017-08-14T06:31:36.187Z,120
2017-08-14T06:32:01.663Z,120
2017-08-14T06:32:27.128Z,120
2017-08-14T06:32:52.571Z,120
2017-08-14T06:33:18.041Z,120
2017-08-14T06:33:43.535Z,115
2017-08-14T06:34:08.978Z,120
2017-08-14T06:34:34.430Z,120
2017-08-14T06:34:59.871Z,115
2017-08-14T06:35:25.353Z,115
2017-08-14T06:35:50.812Z,120
2017-08-14T06:36:16.263Z,125
2017-08-14T06:36:41.746Z,125
2017-08-14T06:37:07.171Z,125
2017-08-14T06:37:32.639Z,125
2017-08-14T06:37:58.138Z,130
2017-08-14T06:38:23.570Z,130
2017-08-14T06:38:49.032Z,130
2017-08-14T06:39:14.462Z,130
2017-08-14T06:39:39.960Z,130
2017-08-14T06:40:05.366Z,130
2017-08-14T06:40:30.870Z,130
2017-08-14T06:40:56.349Z,130
2017-08-14T06:41:21.860Z,130
2017-08-14T06:41:47.245Z,125
2017-08-14T06:42:12.756Z,125
2017-08-14T06:42:38.150Z,125
2017-08-14T06:43:03.619Z,125
2017-08-14T06:43:29.081Z,125
2017-08-14T06:43:54.519Z,125
2017-08-14T06:44:19.983Z,120
2017-08-14T06:44:45.437Z,120
2017-08-14T06:45:10.910Z,125
2017-08-14T06:45:36.377Z,125
2017-08-14T06:46:01.823Z,125
2017-08-14T06:46:27.350Z,125
2017-08-14T06:46:52.717Z,125
2017-08-14T06:47:18.186Z,125
2017-08-14T06:47:43.658Z,130
2017-08-14T06:48:09.066Z,125
2017-08-14T06:48:34.537Z,125
2017-08-14T06:48:59.981Z,125
2017-08-14T06:49:25.425Z,125
2017-08-14T06:49:50.897Z,125
2017-08-14T06:50:16.344Z,125
2017-08-14T06:50:41.836Z,125
2017-08-14T06:51:07.279Z,125
2017-08-14T06:51:32.713Z,125
2017-08-14T06:51:58.227Z,125
2017-08-14T06:52:23.685Z,120
2017-08-14T06:52:49.131Z,125
2017-08-14T06:53:14.600Z,125
2017-08-14T06:53:40.049Z,125
2017-08-14T06:54:05.515Z,125
2017-08-14T06:54:31.070Z,125
2017-08-14T06:54:56.462Z,125
2017-08-14T06:55:21.969Z,125
2017-08-14T06:55:47.418Z,125
2017-08-14T06:56:12.887Z,130
2017-08-14T06:56:38.334Z,130
2017-08-14T06:57:03.799Z,125
2017-08-14T06:57:29.245Z,125
2017-08-14T06:57:54.704Z,125
2017-08-14T06:58:20.166Z,125
2017-08-14T06:58:45.592Z,125
2017-08-14T06:59:11.049Z,125
2017-08-14T06:59:36.505Z,125
2017-08-14T07:00:01.954Z,120
2017-08-14T07:00:27.504Z,120
2017-08-14T07:00:53.012Z,120
2017-08-14T07:01:18.445Z,120
2017-08-14T07:01:43.908Z,120
2017-08-14T07:02:09.303Z,115
2017-08-14T07:02:34.835Z,115
2017-08-14T07:03:00.250Z,115
2017-08-14T07:03:25.766Z,115
2017-08-14T07:03:51.215Z,120
2017-08-14T07:04:16.704Z,115
2017-08-14T07:04:42.166Z,120
2017-08-14T07:05:07.626Z,120
2017-08-14T07:05:33.086Z,120
2017-08-14T07:05:58.545Z,120
2017-08-14T07:06:23.967Z,125
2017-08-14T07:06:49.471Z,125
2017-08-14T07:07:14.939Z,125
2017-08-14T07:07:40.404Z,130
2017-08-14T07:08:05.849Z,125
2017-08-14T07:08:31.324Z,125
2017-08-14T07:08:56.788Z,125
2017-08-14T07:09:22.242Z,130
2017-08-14T07:09:47.708Z,130
2017-08-14T07:10:13.172Z,125
2017-08-14T07:10:38.648Z,130
2017-08-14T07:11:04.086Z,130
2017-08-14T07:11:29.563Z,130
2017-08-14T07:11:55.001Z,130
2017-08-14T07:12:20.475Z,130
2017-08-14T07:12:45.918Z,130
2017-08-14T07:13:11.361Z,130
2017-08-14T07:13:36.863Z,130
2017-08-14T07:14:02.329Z,125
2017-08-14T07:14:27.757Z,125
2017-08-14T07:14:53.223Z,125
2017-08-14T07:15:18.710Z,125
2017-08-14T07:15:44.206Z,125
2017-08-14T07:16:09.588Z,125
2017-08-14T07:16:35.068Z,125
2017-08-14T07:17:00.549Z,125
2017-08-14T07:17:25.967Z,125
2017-08-14T07:17:51.508Z,125
2017-08-14T07:18:16.949Z,125
2017-08-14T07:18:42.417Z,125
2017-08-14T07:19:07.916Z,125
2017-08-14T07:19:33.374Z,125
2017-08-14T07:19:58.818Z,120
2017-08-14T07:20:24.278Z,120
2017-08-14T07:20:49.787Z,120
2017-08-14T07:21:15.226Z,120
2017-08-14T07:21:40.692Z,120
2017-08-14T07:22:06.151Z,125
2017-08-14T07:22:31.594Z,125
2017-08-14T07:22:57.100Z,125
2017-08-14T07:23:22.538Z,125
2017-08-14T07:23:48.008Z,125
2017-08-14T07:24:13.505Z,125
2017-08-14T07:24:38.974Z,125
2017-08-14T07:25:04.402Z,125
2017-08-14T07:25:29.855Z,125
2017-08-14T07:25:55.279Z,125
2017-08-14T07:26:20.760Z,125
2017-08-14T07:26:46.184Z,125
2017-08-14T07:27:11.689Z,125
2017-08-14T07:27:37.136Z,125
2017-08-14T07:28:02.603Z,125
2017-08-14T07:28:28.070Z,125
2017-08-14T07:28:53.536Z,125
2017-08-14T07:29:18.976Z,125
2017-08-14T07:29:44.429Z,125
2017-08-14T07:30:09.906Z,125
2017-08-14T07:30:35.391Z,125
2017-08-14T07:31:00.851Z,125
2017-08-14T07:31:26.283Z,125
2017-08-14T07:31:51.727Z,125
2017-08-14T07:32:17.249Z,125
2017-08-14T07:32:42.699Z,125
2017-08-14T07:33:08.181Z,125
2017-08-14T07:33:33.653Z,125
2017-08-14T07:33:59.120Z,125
2017-08-14T07:34:24.621Z,125
2017-08-14T07:34:50.015Z,125
2017-08-14T07:35:15.469Z,125
2017-08-14T07:35:40.954Z,125
2017-08-14T07:36:06.402Z,130
2017-08-14T07:36:31.843Z,125
2017-08-14T07:36:57.283Z,125
2017-08-14T07:37:22.732Z,125
2017-08-14T07:37:48.218Z,125
2017-08-14T07:38:13.622Z,125
2017-08-14T07:38:39.060Z,125
2017-08-14T07:39:04.584Z,125
2017-08-14T07:39:30.047Z,125
2017-08-14T07:39:55.487Z,125
2017-08-14T07:40:20.948Z,125
2017-08-14T07:40:46.420Z,125
2017-08-14T07:41:11.857Z,125
2017-08-14T07:41:37.306Z,125
2017-08-14T07:42:02.789Z,125
2017-08-14T07:42:28.233Z,125
2017-08-14T07:42:53.709Z,125
2017-08-14T07:43:19.135Z,125
2017-08-14T07:43:44.590Z,125
2017-08-14T07:44:10.030Z,125
2017-08-14T07:44:35.495Z,125
2017-08-14T07:45:00.974Z,125
2017-08-14T07:45:26.473Z,125
2017-08-14T07:45:51.903Z,125
2017-08-14T07:46:17.364Z,125
2017-08-14T07:46:42.809Z,125
2017-08-14T07:47:08.261Z,125
2017-08-14T07:47:33.684Z,125
2017-08-14T07:47:59.170Z,125
2017-08-14T07:48:24.652Z,125
2017-08-14T07:48:50.077Z,125
2017-08-14T07:49:15.540Z,125
2017-08-14T07:49:40.968Z,125
2017-08-14T07:50:06.446Z,125
2017-08-14T07:50:31.885Z,125
2017-08-14T07:50:57.327Z,125
2017-08-14T07:51:22.792Z,125
2017-08-14T07:51:48.267Z,125
2017-08-14T07:52:13.686Z,125
2017-08-14T07:52:39.153Z,125
2017-08-14T07:53:04.632Z,125
2017-08-14T07:53:30.102Z,125
2017-08-14T07:53:55.551Z,125
2017-08-14T07:54:20.992Z,125
2017-08-14T07:54:46.564Z,125
2017-08-14T07:55:11.916Z,125
2017-08-14T07:55:37.351Z,125
2017-08-14T07:56:02.873Z,125
2017-08-14T07:56:28.301Z,125
2017-08-14T07:56:53.770Z,125
2017-08-14T07:57:19.242Z,125
2017-08-14T07:57:44.695Z,125
2017-08-14T07:58:10.129Z,125
2017-08-14T07:58:35.585Z,125
2017-08-14T07:59:01.037Z,125
2017-08-14T07:59:26.510Z,125
2017-08-14T07:59:51.959Z,125
2017-08-14T08:00:17.398Z,125
2017-08-14T08:00:42.825Z,125
2017-08-14T08:01:08.289Z,125
2017-08-14T08:01:33.745Z,125
2017-08-14T08:01:59.316Z,125
2017-08-14T08:02:24.835Z,125
2017-08-14T08:02:50.290Z,125
2017-08-14T08:03:15.818Z,125
2017-08-14T08:03:41.255Z,125
2017-08-14T08:04:06.728Z,125
2017-08-14T08:04:32.170Z,125
2017-08-14T08:04:57.597Z,130
2017-08-14T08:05:23.062Z,125
2017-08-14T08:05:48.561Z,125
2017-08-14T08:06:14.019Z,125
2017-08-14T08:06:39.563Z,125
2017-08-14T08:07:04.964Z,125
2017-08-14T08:07:30.431Z,125
2017-08-14T08:07:55.853Z,125
2017-08-14T08:08:21.336Z,125
2017-08-14T08:08:46.805Z,125
2017-08-14T08:09:12.258Z,125
2017-08-14T08:09:37.729Z,125
2017-08-14T08:10:03.197Z,125
2017-08-14T08:10:28.652Z,125
2017-08-14T08:10:54.134Z,125
2017-08-14T08:11:19.573Z,125
2017-08-14T08:11:45.006Z,125
2017-08-14T08:12:10.482Z,125
2017-08-14T08:12:35.954Z,125
2017-08-14T08:13:01.435Z,125
2017-08-14T08:13:26.858Z,125
2017-08-14T08:13:52.327Z,125
2017-08-14T08:14:17.816Z,125
2017-08-14T08:14:43.268Z,130
2017-08-14T08:15:08.711Z,125
2017-08-14T08:15:34.189Z,125
2017-08-14T08:15:59.850Z,125
2017-08-14T08:16:25.277Z,125
2017-08-14T08:16:50.805Z,125
2017-08-14T08:17:16.336Z,130
2017-08-14T08:17:41.932Z,125
2017-08-14T08:18:07.409Z,125
2017-08-14T08:18:32.857Z,125
2017-08-14T08:18:58.296Z,125
2017-08-14T08:19:23.770Z,125
2017-08-14T08:19:49.270Z,125
2017-08-14T08:20:14.718Z,125
2017-08-14T08:20:40.158Z,120
2017-08-14T08:21:05.613Z,120
2017-08-14T08:21:31.062Z,120
2017-08-14T08:21:56.569Z,120
2017-08-14T08:22:22.031Z,120
2017-08-14T08:22:47.502Z,120
2017-08-14T08:23:12.945Z,120
2017-08-14T08:23:38.429Z,120
2017-08-14T08:24:03.869Z,120
2017-08-14T08:24:29.317Z,120
2017-08-14T08:24:54.754Z,120
2017-08-14T08:25:20.241Z,120
2017-08-14T08:25:45.733Z,120
2017-08-14T08:26:11.205Z,120
2017-08-14T08:26:36.709Z,120
2017-08-14T08:27:02.189Z,120
2017-08-14T08:27:27.619Z,120
2017-08-14T08:27:53.111Z,120
2017-08-14T08:28:18.531Z,120
2017-08-14T08:28:43.987Z,120
2017-08-14T08:29:09.441Z,120
2017-08-14T08:29:34.896Z,120
2017-08-14T08:30:00.368Z,120
2017-08-14T08:30:25.806Z,120
2017-08-14T08:30:51.303Z,120
2017-08-14T08:31:16.728Z,120
2017-08-14T08:31:42.191Z,120
2017-08-14T08:32:07.642Z,120
2017-08-14T08:32:33.099Z,120
2017-08-14T08:32:58.557Z,120
2017-08-14T08:33:24.012Z,120
2017-08-14T08:33:49.493Z,120
2017-08-14T08:34:14.925Z,120
2017-08-14T08:34:40.368Z,120
2017-08-14T08:35:05.829Z,120
2017-08-14T08:35:31.298Z,120
2017-08-14T08:35:56.724Z,120
2017-08-14T08:36:22.233Z,120
2017-08-14T08:36:47.693Z,120
2017-08-14T08:37:13.160Z,120
2017-08-14T08:37:38.626Z,115
2017-08-14T08:38:04.067Z,115
2017-08-14T08:38:29.545Z,115
2017-08-14T08:38:55.000Z,115
2017-08-14T08:39:20.436Z,115
2017-08-14T08:39:45.921Z,115
2017-08-14T08:40:11.392Z,115
2017-08-14T08:40:36.821Z,115
2017-08-14T08:41:02.322Z,115
2017-08-14T08:41:27.765Z,115
2017-08-14T08:41:53.260Z,115
2017-08-14T08:42:18.767Z,115
2017-08-14T08:42:44.229Z,115
2017-08-14T08:43:09.692Z,115
2017-08-14T08:43:35.185Z,115
2017-08-14T08:44:00.645Z,115
2017-08-14T08:44:26.107Z,115
2017-08-14T08:44:51.551Z,115
2017-08-14T08:45:17.026Z,115
2017-08-14T08:45:42.522Z,115
2017-08-14T08:46:07.932Z,115
2017-08-14T08:46:33.415Z,115
2017-08-14T08:46:58.869Z,115
2017-08-14T08:47:24.407Z,115
2017-08-14T08:47:49.855Z,115
2017-08-14T08:48:15.312Z,115
2017-08-14T08:48:40.772Z,115
2017-08-14T08:49:06.228Z,115
2017-08-14T08:49:31.664Z,115
2017-08-14T08:49:57.125Z,115
2017-08-14T08:50:22.592Z,115
2017-08-14T08:50:48.124Z,115
2017-08-14T08:51:13.570Z,115
2017-08-14T08:51:39.009Z,115
2017-08-14T08:52:04.478Z,115
2017-08-14T08:52:29.940Z,115
2017-08-14T08:52:55.380Z,115
2017-08-14T08:53:20.868Z,115
2017-08-14T08:53:46.315Z,115
2017-08-14T08:54:11.798Z,115
2017-08-14T08:54:37.266Z,115
2017-08-14T08:55:02.712Z,115
2017-08-14T08:55:28.168Z,115
2017-08-14T08:55:53.664Z,115
2017-08-14T08:56:19.098Z,115
2017-08-14T08:56:44.563Z,115
2017-08-14T08:57:10.037Z,115
2017-08-14T08:57:35.509Z,115
2017-08-14T08:58:01.028Z,115
2017-08-14T08:58:26.471Z,115
2017-08-14T08:58:51.940Z,115
2017-08-14T08:59:17.383Z,115
2017-08-14T08:59:42.865Z,115
2017-08-14T09:00:08.353Z,115
2017-08-14T09:00:33.814Z,115
2017-08-14T09:00:59.313Z,115
2017-08-14T09:01:24.704Z,115
2017-08-14T09:01:50.174Z,115
2017-08-14T09:02:15.651Z,115
2017-08-14T09:02:41.142Z,115
2017-08-14T09:03:06.596Z,115
2017-08-14T09:03:32.058Z,115
2017-08-14T09:03:57.471Z,115
2017-08-14T09:04:22.986Z,115
2017-08-14T09:04:48.465Z,115
2017-08-14T09:05:13.927Z,115
2017-08-14T09:05:39.340Z,115
2017-08-14T09:06:04.819Z,115
2017-08-14T09:06:30.309Z,115
2017-08-14T09:06:55.782Z,115
2017-08-14T09:07:21.198Z,115
2017-08-14T09:07:46.662Z,115
2017-08-14T09:08:12.100Z,115
2017-08-14T09:08:37.554Z,115
2017-08-14T09:09:03.013Z,110
2017-08-14T09:09:28.468Z,110
2017-08-14T09:09:53.953Z,110
2017-08-14T09:10:19.420Z,110
2017-08-14T09:10:44.876Z,110
2017-08-14T09:11:10.302Z,110
2017-08-14T09:11:35.760Z,110
2017-08-14T09:12:01.224Z,110
2017-08-14T09:12:26.694Z,110
2017-08-14T09:12:52.124Z,110
2017-08-14T09:13:17.682Z,110
2017-08-14T09:13:43.113Z,110
2017-08-14T09:14:08.588Z,110
2017-08-14T09:14:34.059Z,110
2017-08-14T09:14:59.524Z,110
2017-08-14T09:15:25.060Z,110
2017-08-14T09:15:50.506Z,110
2017-08-14T09:16:15.982Z,110
2017-08-14T09:16:41.428Z,110
2017-08-14T09:17:06.910Z,110
2017-08-14T09:17:32.388Z,110
2017-08-14T09:17:57.819Z,110
2017-08-14T09:18:23.338Z,115
2017-08-14T09:18:48.780Z,110
2017-08-14T09:19:14.225Z,110
2017-08-14T09:19:39.686Z,110
2017-08-14T09:20:05.148Z,115
2017-08-14T09:20:30.609Z,115
2017-08-14T09:20:56.050Z,110
2017-08-14T09:21:21.519Z,110
2017-08-14T09:21:47.004Z,110
2017-08-14T09:22:12.475Z,110
2017-08-14T09:22:37.970Z,110
2017-08-14T09:23:03.468Z,110
2017-08-14T09:23:28.921Z,110
2017-08-14T09:23:54.371Z,110
2017-08-14T09:24:19.945Z,110
2017-08-14T09:24:45.322Z,110
2017-08-14T09:25:10.751Z,110
2017-08-14T09:25:36.340Z,110
2017-08-14T09:26:01.765Z,110
2017-08-14T09:26:27.240Z,110
2017-08-14T09:26:52.688Z,110
2017-08-14T09:27:18.174Z,110
2017-08-14T09:27:43.668Z,110
2017-08-14T09:28:09.152Z,110
2017-08-14T09:28:34.632Z,110
2017-08-14T09:29:00.162Z,110
2017-08-14T09:29:25.591Z,110
2017-08-14T09:29:51.051Z,110
2017-08-14T09:30:16.593Z,110
2017-08-14T09:30:42.101Z,110
2017-08-14T09:31:07.602Z,105
2017-08-14T09:31:33.090Z,105
2017-08-14T09:31:58.484Z,105
2017-08-14T09:32:24.015Z,105
2017-08-14T09:32:49.428Z,105
2017-08-14T09:33:14.910Z,105
2017-08-14T09:33:40.386Z,105
2017-08-14T09:34:05.858Z,105
2017-08-14T09:34:31.300Z,105
2017-08-14T09:34:56.760Z,105
2017-08-14T09:35:22.201Z,105
2017-08-14T09:35:47.688Z,105
2017-08-14T09:36:13.122Z,105
2017-08-14T09:36:38.547Z,105
2017-08-14T09:37:04.003Z,105
2017-08-14T09:37:29.455Z,105
2017-08-14T09:37:54.953Z,105
2017-08-14T09:38:20.394Z,105
2017-08-14T09:38:45.852Z,105
2017-08-14T09:39:11.330Z,105
2017-08-14T09:39:36.820Z,105
2017-08-14T09:40:02.328Z,105
2017-08-14T09:40:27.789Z,105
2017-08-14T09:40:53.263Z,105
2017-08-14T09:41:18.758Z,105
2017-08-14T09:41:44.207Z,105
2017-08-14T09:42:09.681Z,105
2017-08-14T09:42:35.174Z,105
2017-08-14T09:43:00.615Z,105
2017-08-14T09:43:26.096Z,105
2017-08-14T09:43:51.541Z,105
2017-08-14T09:44:17.004Z,105
2017-08-14T09:44:42.491Z,105
2017-08-14T09:45:07.969Z,105
2017-08-14T09:45:33.418Z,105
2017-08-14T09:45:58.875Z,105
2017-08-14T09:46:24.327Z,100
2017-08-14T09:46:49.782Z,105
2017-08-14T09:47:15.270Z,100
2017-08-14T09:47:40.727Z,100
2017-08-14T09:48:06.183Z,105
2017-08-14T09:48:31.655Z,105
2017-08-14T09:48:57.107Z,105
2017-08-14T09:49:22.557Z,105
2017-08-14T09:49:48.018Z,105
2017-08-14T09:50:13.460Z,105
2017-08-14T09:50:38.969Z,105
2017-08-14T09:51:04.393Z,105
2017-08-14T09:51:29.860Z,100
2017-08-14T09:51:55.338Z,100
2017-08-14T09:52:20.795Z,100
2017-08-14T09:52:46.244Z,100
2017-08-14T09:53:11.689Z,100
2017-08-14T09:53:37.168Z,100
2017-08-14T09:54:02.675Z,100
2017-08-14T09:54:28.099Z,100
2017-08-14T09:54:53.575Z,100
2017-08-14T09:55:19.042Z,100
2017-08-14T09:55:44.562Z,100
2017-08-14T09:56:10.038Z,100
2017-08-14T09:56:35.514Z,100
2017-08-14T09:57:01.002Z,100
2017-08-14T09:57:26.447Z,100
2017-08-14T09:57:51.881Z,100
2017-08-14T09:58:17.381Z,100
2017-08-14T09:58:42.834Z,100
2017-08-14T09:59:08.291Z,100
2017-08-14T09:59:33.792Z,95
2017-08-14T09:59:59.227Z,95
2017-08-14T10:00:24.697Z,95
2017-08-14T10:00:50.136Z,95
2017-08-14T10:01:15.613Z,95
2017-08-14T10:01:41.078Z,95
2017-08-14T10:02:06.529Z,95
2017-08-14T10:02:31.969Z,95
2017-08-14T10:02:57.438Z,95
2017-08-14T10:03:22.930Z,95
2017-08-14T10:03:48.374Z,95
2017-08-14T10:04:13.849Z,95
2017-08-14T10:04:39.296Z,95
2017-08-14T10:05:04.712Z,95
2017-08-14T10:05:30.173Z,95
2017-08-14T10:05:55.636Z,95
2017-08-14T10:06:21.097Z,95
2017-08-14T10:06:46.609Z,95
2017-08-14T10:07:12.028Z,95
2017-08-14T10:07:37.470Z,90
2017-08-14T10:08:02.944Z,90
2017-08-14T10:08:28.436Z,90
2017-08-14T10:08:53.904Z,90
2017-08-14T10:09:19.311Z,90
2017-08-14T10:09:44.746Z,90
2017-08-14T10:10:10.252Z,90
2017-08-14T10:10:35.721Z,90
2017-08-14T10:11:01.185Z,90
2017-08-14T10:11:26.627Z,90
2017-08-14T10:11:52.088Z,90
2017-08-14T10:12:17.554Z,90
2017-08-14T10:12:43.027Z,90
2017-08-14T10:13:08.488Z,90
2017-08-14T10:13:33.927Z,90
2017-08-14T10:13:59.385Z,90
2017-08-14T10:14:24.874Z,90
2017-08-14T10:14:50.327Z,90
2017-08-14T10:15:15.781Z,90
2017-08-14T10:15:41.245Z,90
2017-08-14T10:16:06.680Z,90
2017-08-14T10:16:32.166Z,95
2017-08-14T10:16:57.632Z,95
2017-08-14T10:17:23.091Z,95
2017-08-14T10:17:48.540Z,95
2017-08-14T10:18:13.966Z,95
2017-08-14T10:18:39.431Z,95
2017-08-14T10:19:04.928Z,95
2017-08-14T10:19:30.352Z,95
2017-08-14T10:19:55.831Z,100
2017-08-14T10:20:21.297Z,95
2017-08-14T10:20:46.758Z,95
2017-08-14T10:21:12.224Z,95
2017-08-14T10:21:37.670Z,90
2017-08-14T10:22:03.221Z,90
2017-08-14T10:22:28.687Z,90
2017-08-14T10:22:54.158Z,90
2017-08-14T10:23:19.649Z,90
2017-08-14T10:23:45.097Z,90
2017-08-14T10:24:10.543Z,90
2017-08-14T10:24:35.993Z,90
2017-08-14T10:25:01.476Z,90
2017-08-14T10:25:26.923Z,90
2017-08-14T10:25:52.441Z,90
2017-08-14T10:26:17.882Z,90
2017-08-14T10:26:43.320Z,90
2017-08-14T10:27:08.786Z,90
2017-08-14T10:27:34.263Z,90
2017-08-14T10:27:59.712Z,90
2017-08-14T10:28:25.180Z,90
2017-08-14T10:28:50.640Z,90
2017-08-14T10:29:16.112Z,90
2017-08-14T10:29:41.562Z,85
2017-08-14T10:30:07.023Z,85
2017-08-14T10:30:32.460Z,85
2017-08-14T10:30:57.929Z,85
2017-08-14T10:31:23.385Z,85
2017-08-14T10:31:48.857Z,85
2017-08-14T10:32:14.325Z,85
2017-08-14T10:32:39.782Z,85
2017-08-14T10:33:05.274Z,85
2017-08-14T10:33:30.737Z,85
2017-08-14T10:33:56.221Z,85
2017-08-14T10:34:21.660Z,85
2017-08-14T10:34:47.155Z,85
2017-08-14T10:35:12.691Z,85
2017-08-14T10:35:38.097Z,85
2017-08-14T10:36:03.592Z,85
2017-08-14T10:36:29.025Z,85
2017-08-14T10:36:54.484Z,85
2017-08-14T10:37:19.932Z,85
2017-08-14T10:37:45.434Z,85
2017-08-14T10:38:10.921Z,85
2017-08-14T10:38:36.366Z,85
2017-08-14T10:39:01.832Z,85
2017-08-14T10:39:27.268Z,85
2017-08-14T10:39:52.729Z,90
2017-08-14T10:40:18.212Z,90
2017-08-14T10:40:43.707Z,90
2017-08-14T10:41:09.171Z,90
2017-08-14T10:41:34.628Z,90
2017-08-14T10:42:00.098Z,90
2017-08-14T10:42:25.565Z,90
2017-08-14T10:42:51.031Z,90
2017-08-14T10:43:16.533Z,85
2017-08-14T10:43:41.957Z,85
2017-08-14T10:44:07.398Z,85
2017-08-14T10:44:32.898Z,85
2017-08-14T10:44:58.403Z,85
2017-08-14T10:45:23.833Z,85
2017-08-14T10:45:49.291Z,85
2017-08-14T10:46:14.738Z,85
2017-08-14T10:46:40.173Z,85
2017-08-14T10:47:05.638Z,85
2017-08-14T10:47:31.094Z,85
2017-08-14T10:47:56.552Z,85
2017-08-14T10:48:22.030Z,85
2017-08-14T10:48:47.466Z,85
2017-08-14T10:49:12.925Z,85
2017-08-14T10:49:38.377Z,85
2017-08-14T10:50:03.896Z,85
2017-08-14T10:50:29.335Z,85
2017-08-14T10:50:54.809Z,85
2017-08-14T10:51:20.265Z,85
2017-08-14T10:51:45.721Z,85
2017-08-14T10:52:11.196Z,80
2017-08-14T10:52:36.668Z,80
2017-08-14T10:53:02.129Z,80
2017-08-14T10:53:27.593Z,80
2017-08-14T10:53:53.006Z,80
2017-08-14T10:54:18.506Z,80
2017-08-14T10:54:43.930Z,80
2017-08-14T10:55:09.445Z,80
2017-08-14T10:55:34.884Z,80
2017-08-14T10:56:00.318Z,80
2017-08-14T10:56:25.798Z,80
2017-08-14T10:56:51.290Z,80
2017-08-14T10:57:16.722Z,80
2017-08-14T10:57:42.191Z,80
2017-08-14T10:58:07.677Z,80
2017-08-14T10:58:33.202Z,80
2017-08-14T10:58:58.566Z,80
2017-08-14T10:59:24.045Z,80
2017-08-14T10:59:49.534Z,80
2017-08-14T11:00:15.004Z,80
2017-08-14T11:00:40.460Z,80
2017-08-14T11:01:05.937Z,80
2017-08-14T11:01:31.407Z,85
2017-08-14T11:01:56.848Z,85
2017-08-14T11:02:22.323Z,85
2017-08-14T11:02:47.755Z,90
2017-08-14T11:03:13.206Z,90
2017-08-14T11:03:38.692Z,90
2017-08-14T11:04:04.126Z,90
2017-08-14T11:04:29.591Z,90
2017-08-14T11:04:55.097Z,90
2017-08-14T11:05:20.514Z,90
2017-08-14T11:05:45.993Z,95
2017-08-14T11:06:11.433Z,100
2017-08-14T11:06:36.844Z,105
2017-08-14T11:07:02.295Z,105
2017-08-14T11:07:27.827Z,105
2017-08-14T11:07:53.285Z,100
2017-08-14T11:08:18.747Z,90
2017-08-14T11:08:44.199Z,90
2017-08-14T11:09:09.663Z,85
2017-08-14T11:09:35.141Z,85
2017-08-14T11:10:00.643Z,85
2017-08-14T11:10:26.082Z,85
2017-08-14T11:10:51.570Z,85
2017-08-14T11:11:17.059Z,85
2017-08-14T11:11:42.537Z,85
2017-08-14T11:12:07.986Z,85
2017-08-14T11:12:33.501Z,85
2017-08-14T11:12:58.882Z,80
2017-08-14T11:13:24.331Z,80
2017-08-14T11:13:49.829Z,80
2017-08-14T11:14:15.287Z,80
2017-08-14T11:14:40.748Z,80
2017-08-14T11:15:06.203Z,85
2017-08-14T11:15:31.665Z,85
2017-08-14T11:15:57.130Z,80
2017-08-14T11:16:22.627Z,80
2017-08-14T11:16:48.088Z,80
2017-08-14T11:17:13.534Z,80
2017-08-14T11:17:39.022Z,85
2017-08-14T11:18:04.485Z,80
2017-08-14T11:18:29.933Z,80
2017-08-14T11:18:55.380Z,80
2017-08-14T11:19:20.871Z,80
2017-08-14T11:19:46.337Z,80
2017-08-14T11:20:11.766Z,80
2017-08-14T11:20:37.230Z,80
2017-08-14T11:21:02.706Z,80
2017-08-14T11:21:28.197Z,85
2017-08-14T11:21:53.652Z,85
2017-08-14T11:22:19.099Z,85
2017-08-14T11:22:44.584Z,90
2017-08-14T11:23:10.091Z,90
2017-08-14T11:23:35.538Z,95
2017-08-14T11:24:00.975Z,95
2017-08-14T11:24:26.434Z,100
2017-08-14T11:24:51.869Z,100
2017-08-14T11:25:17.330Z,100
2017-08-14T11:25:42.780Z,100